createdAt,value
2023-02-14T00:01:07.484Z,100253.19
2023-02-14T00:03:34.315Z,100256.66
2023-02-14T00:06:08.207Z,100255.88
2023-02-14T00:08:35.043Z,100258.66
2023-02-14T00:11:01.721Z,100257.09
2023-02-14T00:13:28.317Z,100266.16
2023-02-14T00:15:55.578Z,100258.91
2023-02-14T00:18:22.176Z,100269.56
2023-02-14T00:20:48.755Z,100266.94
2023-02-14T00:23:15.353Z,100269.78
2023-02-14T00:25:41.900Z,100276.38
2023-02-14T00:28:08.458Z,100271.13
2023-02-14T00:30:35.175Z,100272.69
2023-02-14T00:33:04.750Z,100286.72
2023-02-14T00:35:31.339Z,100285.66
2023-02-14T00:37:57.925Z,100286.25
2023-02-14T00:40:24.544Z,100285.47
2023-02-14T00:42:51.153Z,100285.47
2023-02-14T00:45:19.090Z,100275.84
2023-02-14T00:47:45.657Z,100272.75
2023-02-14T00:50:12.325Z,100273.91
2023-02-14T00:52:38.890Z,100264.31
2023-02-14T00:55:05.714Z,100258.97
2023-02-14T00:57:32.288Z,100253.25
2023-02-14T00:59:58.880Z,100247.63
2023-02-14T01:02:26.752Z,100251.28
2023-02-14T01:04:53.379Z,100243.91
2023-02-14T01:07:22.681Z,100243.25
2023-02-14T01:09:49.307Z,100239.22
2023-02-14T01:12:15.906Z,100228.00
2023-02-14T01:14:42.507Z,100223.41
2023-02-14T01:17:09.074Z,100233.78
2023-02-14T01:19:36.703Z,100227.09
2023-02-14T01:22:03.280Z,100220.03
2023-02-14T01:24:29.904Z,100231.03
2023-02-14T01:26:56.497Z,100241.59
2023-02-14T01:29:23.097Z,100235.81
2023-02-14T01:31:52.243Z,100240.88
2023-02-14T01:34:18.989Z,100246.75
2023-02-14T01:36:46.815Z,100241.25
2023-02-14T01:40:00.598Z,100242.88
2023-02-14T01:43:08.421Z,100241.41
2023-02-14T01:48:47.398Z,100244.28
2023-02-14T01:51:14.387Z,100238.44
2023-02-14T01:53:40.986Z,100241.56
2023-02-14T01:56:27.249Z,100245.97
2023-02-14T01:59:06.302Z,100247.72
2023-02-14T02:01:32.935Z,100247.53
2023-02-14T02:04:04.577Z,100235.97
2023-02-14T02:06:51.103Z,100237.25
2023-02-14T02:09:23.488Z,100245.41
2023-02-14T02:11:50.128Z,100234.28
2023-02-14T02:14:18.517Z,100241.94
2023-02-14T02:17:03.666Z,100244.47
2023-02-14T02:20:01.180Z,100236.84
2023-02-14T02:22:51.281Z,100234.81
2023-02-14T02:25:36.678Z,100236.38
2023-02-14T02:28:09.260Z,100237.00
2023-02-14T02:31:03.924Z,100234.25
2023-02-14T02:33:59.678Z,100239.34
2023-02-14T02:36:52.290Z,100241.13
2023-02-14T02:39:27.699Z,100239.81
2023-02-14T02:42:06.146Z,100237.06
2023-02-14T02:44:51.571Z,100251.00
2023-02-14T02:47:29.933Z,100238.34
2023-02-14T02:50:17.766Z,100240.53
2023-02-14T02:53:22.479Z,100243.44
2023-02-14T02:56:20.375Z,100253.56
2023-02-14T02:58:50.350Z,100268.34
2023-02-14T03:01:20.781Z,100259.78
2023-02-14T03:04:08.609Z,100267.19
2023-02-14T03:06:35.226Z,100261.28
2023-02-14T03:09:30.884Z,100261.72
2023-02-14T03:12:14.368Z,100264.06
2023-02-14T03:15:10.276Z,100254.22
2023-02-14T03:18:12.388Z,100251.38
2023-02-14T03:20:49.746Z,100259.31
2023-02-14T03:23:21.796Z,100268.34
2023-02-14T03:26:00.587Z,100278.22
2023-02-14T03:28:56.089Z,100267.47
2023-02-14T03:31:47.188Z,100272.53
2023-02-14T03:34:36.809Z,100272.59
2023-02-14T03:37:06.319Z,100266.28
2023-02-14T03:39:45.788Z,100260.72
2023-02-14T03:42:34.145Z,100274.19
2023-02-14T03:45:00.846Z,100269.78
2023-02-14T03:47:30.371Z,100269.66
2023-02-14T03:49:59.533Z,100262.63
2023-02-14T03:52:26.164Z,100255.94
2023-02-14T03:54:53.101Z,100258.53
2023-02-14T03:57:35.445Z,100261.88
2023-02-14T04:00:02.089Z,100262.56
2023-02-14T04:02:44.309Z,100262.81
2023-02-14T04:05:19.475Z,100253.34
2023-02-14T04:07:48.096Z,100256.66
2023-02-14T04:10:15.054Z,100256.13
2023-02-14T04:12:41.723Z,100261.16
2023-02-14T04:15:08.535Z,100265.22
2023-02-14T04:17:53.865Z,100254.97
2023-02-14T04:20:20.606Z,100263.69
2023-02-14T04:22:47.259Z,100263.00
2023-02-14T04:25:14.288Z,100262.19
2023-02-14T04:27:40.942Z,100252.69
2023-02-14T04:30:08.150Z,100252.69
2023-02-14T04:32:38.090Z,100254.34
2023-02-14T04:35:05.170Z,100261.28
2023-02-14T04:37:31.829Z,100256.09
2023-02-14T04:39:58.517Z,100259.13
2023-02-14T04:42:25.148Z,100256.66
2023-02-14T04:44:51.841Z,100256.09
2023-02-14T04:47:28.350Z,100255.91
2023-02-14T04:49:54.969Z,100266.38
2023-02-14T04:52:21.557Z,100266.19
2023-02-14T04:54:48.834Z,100262.38
2023-02-14T04:57:15.421Z,100245.44
2023-02-14T04:59:42.361Z,100234.69
2023-02-14T05:02:14.255Z,100228.38
2023-02-14T05:05:02.947Z,100222.00
2023-02-14T05:07:41.051Z,100224.19
2023-02-14T05:10:16.935Z,100218.59
2023-02-14T05:12:44.140Z,100213.97
2023-02-14T05:15:10.776Z,100210.91
2023-02-14T05:17:37.385Z,100207.66
2023-02-14T05:20:07.155Z,100205.84
2023-02-14T05:22:33.801Z,100200.38
2023-02-14T05:25:00.450Z,100202.50
2023-02-14T05:27:27.062Z,100201.28
2023-02-14T05:29:53.845Z,100212.66
2023-02-14T05:32:20.641Z,100202.53
2023-02-14T05:34:47.287Z,100188.38
2023-02-14T05:37:13.858Z,100185.72
2023-02-14T05:39:40.466Z,100184.63
2023-02-14T05:42:07.087Z,100188.81
2023-02-14T05:44:33.703Z,100188.69
2023-02-14T05:47:00.290Z,100194.41
2023-02-14T05:49:26.920Z,100193.53
2023-02-14T05:51:53.509Z,100195.22
2023-02-14T05:54:20.118Z,100197.41
2023-02-14T05:56:46.764Z,100185.78
2023-02-14T05:59:14.579Z,100170.03
2023-02-14T06:01:41.202Z,100168.56
2023-02-14T06:04:07.880Z,100181.63
2023-02-14T06:06:36.591Z,100175.25
2023-02-14T06:09:03.438Z,100183.28
2023-02-14T06:11:30.042Z,100188.38
2023-02-14T06:13:56.904Z,100186.22
2023-02-14T06:16:23.582Z,100180.56
2023-02-14T06:18:50.161Z,100176.50
2023-02-14T06:21:16.764Z,100157.50
2023-02-14T06:23:43.333Z,100156.41
2023-02-14T06:26:10.022Z,100167.09
2023-02-14T06:28:36.645Z,100164.38
2023-02-14T06:31:03.690Z,100175.03
2023-02-14T06:33:30.581Z,100164.16
2023-02-14T06:35:57.148Z,100156.63
2023-02-14T06:38:23.829Z,100147.22
2023-02-14T06:40:50.750Z,100145.16
2023-02-14T06:43:17.333Z,100149.56
2023-02-14T06:45:43.949Z,100135.41
2023-02-14T06:48:10.618Z,100128.00
2023-02-14T06:50:37.292Z,100126.06
2023-02-14T06:53:03.943Z,100126.59
2023-02-14T06:55:30.533Z,100128.44
2023-02-14T06:57:57.156Z,100127.41
2023-02-14T07:00:23.746Z,100127.38
2023-02-14T07:02:50.399Z,100119.38
2023-02-14T07:05:18.944Z,100129.50
2023-02-14T07:07:45.865Z,100126.91
2023-02-14T07:10:12.486Z,100131.69
2023-02-14T07:12:41.907Z,100143.00
2023-02-14T07:15:09.978Z,100144.69
2023-02-14T07:17:36.799Z,100144.63
2023-02-14T07:20:09.168Z,100129.19
2023-02-14T07:22:35.991Z,100150.75
2023-02-14T07:25:02.546Z,100159.78
2023-02-14T07:27:29.130Z,100164.81
2023-02-14T07:29:55.750Z,100172.94
2023-02-14T07:32:23.537Z,100165.34
2023-02-14T07:34:50.735Z,100153.69
2023-02-14T07:37:17.809Z,100152.97
2023-02-14T07:39:44.790Z,100150.94
2023-02-14T07:42:11.740Z,100168.72
2023-02-14T07:44:41.114Z,100163.34
2023-02-14T07:47:08.137Z,100157.84
2023-02-14T07:49:34.785Z,100166.31
2023-02-14T07:52:01.494Z,100179.53
2023-02-14T07:54:28.093Z,100196.06
2023-02-14T07:56:54.684Z,100192.06
2023-02-14T07:59:21.327Z,100189.22
2023-02-14T08:01:47.926Z,100194.19
2023-02-14T08:04:14.571Z,100190.03
2023-02-14T08:06:41.803Z,100183.09
2023-02-14T08:09:10.041Z,100185.97
2023-02-14T08:11:55.760Z,100194.44
2023-02-14T08:14:22.625Z,100182.34
2023-02-14T08:16:49.190Z,100189.34
2023-02-14T08:19:16.080Z,100185.41
2023-02-14T08:21:42.666Z,100195.22
2023-02-14T08:24:09.296Z,100202.72
2023-02-14T08:26:36.772Z,100202.25
2023-02-14T08:29:03.354Z,100203.09
2023-02-14T08:31:35.957Z,100201.16
2023-02-14T08:34:06.784Z,100205.66
2023-02-14T08:36:34.222Z,100188.47
2023-02-14T08:39:01.254Z,100181.44
2023-02-14T08:41:27.818Z,100186.28
2023-02-14T08:43:54.422Z,100179.16
2023-02-14T08:46:21.048Z,100189.50
2023-02-14T08:48:49.674Z,100185.34
2023-02-14T08:51:16.529Z,100175.09
2023-02-14T08:53:43.470Z,100173.13
2023-02-14T08:56:11.638Z,100180.94
2023-02-14T08:58:38.773Z,100177.84
2023-02-14T09:01:12.988Z,100178.75
2023-02-14T09:03:39.962Z,100202.78
2023-02-14T09:06:11.868Z,100200.19
2023-02-14T09:08:38.851Z,100207.84
2023-02-14T09:11:14.160Z,100227.91
2023-02-14T09:13:44.228Z,100223.88
2023-02-14T09:16:11.668Z,100282.75
2023-02-14T09:18:38.465Z,100318.84
2023-02-14T09:21:09.429Z,100285.50
2023-02-14T09:23:36.178Z,100301.97
2023-02-14T09:26:04.411Z,100351.91
2023-02-14T09:28:31.077Z,100294.25
2023-02-14T09:30:58.116Z,100365.22
2023-02-14T09:33:28.156Z,100320.22
2023-02-14T09:35:54.848Z,100308.44
2023-02-14T09:38:21.515Z,100312.00
2023-02-14T09:40:50.196Z,100333.16
2023-02-14T09:43:19.706Z,100253.47
2023-02-14T09:45:47.804Z,100143.28
2023-02-14T09:48:26.101Z,100115.94
2023-02-14T09:50:58.886Z,100048.25
2023-02-14T09:53:26.472Z,100059.88
2023-02-14T09:56:02.180Z,100007.94
2023-02-14T09:58:36.413Z,100029.44
2023-02-14T10:01:05.577Z,99984.91
2023-02-14T10:03:35.609Z,99915.78
2023-02-14T10:06:10.260Z,99794.66
2023-02-14T10:08:47.132Z,99776.16
2023-02-14T10:11:17.156Z,99662.59
2023-02-14T10:13:46.192Z,99666.03
2023-02-14T10:16:27.127Z,99655.97
2023-02-14T10:18:56.871Z,99634.38
2023-02-14T10:21:41.862Z,99598.88
2023-02-14T10:24:16.374Z,99571.72
2023-02-14T10:26:42.926Z,99535.72
2023-02-14T10:29:11.622Z,99497.28
2023-02-14T10:31:43.492Z,99444.38
2023-02-14T10:34:36.233Z,99413.84
2023-02-14T10:37:06.884Z,99392.16
2023-02-14T10:39:41.614Z,99394.25
2023-02-14T10:42:14.746Z,99383.16
2023-02-14T10:44:41.159Z,99402.59
2023-02-14T10:47:26.362Z,99319.66
2023-02-14T10:50:11.833Z,99296.16
2023-02-14T10:52:50.110Z,99299.94
2023-02-14T10:55:31.511Z,99263.16
2023-02-14T10:57:59.991Z,99199.97
2023-02-14T11:00:28.274Z,99175.59
2023-02-14T11:02:58.209Z,99172.72
2023-02-14T11:05:38.227Z,99181.03
2023-02-14T11:08:13.985Z,99176.16
2023-02-14T11:10:40.466Z,99155.38
2023-02-14T11:13:26.165Z,99139.53
2023-02-14T11:15:54.110Z,99138.22
2023-02-14T11:18:21.866Z,99137.75
2023-02-14T11:21:02.107Z,99130.41
2023-02-14T11:23:31.591Z,99121.06
2023-02-14T11:26:00.329Z,99114.00
2023-02-14T11:28:27.093Z,99112.59
2023-02-14T11:30:53.709Z,99112.47
2023-02-14T11:33:32.583Z,99100.72
2023-02-14T11:35:59.078Z,99096.41
2023-02-14T11:38:27.523Z,99097.56
2023-02-14T11:40:55.161Z,99083.19
2023-02-14T11:43:30.805Z,99085.50
2023-02-14T11:46:15.501Z,99080.72
2023-02-14T11:48:58.456Z,99089.41
2023-02-14T11:51:28.596Z,99079.78
2023-02-14T11:53:56.303Z,99076.88
2023-02-14T11:56:23.288Z,99073.56
2023-02-14T11:58:50.943Z,99064.00
2023-02-14T12:01:24.693Z,99068.13
2023-02-14T12:03:51.157Z,99058.31
2023-02-14T12:06:30.269Z,99055.53
2023-02-14T12:09:15.681Z,99053.09
2023-02-14T12:11:42.223Z,99049.69
2023-02-14T12:14:12.301Z,99053.91
2023-02-14T12:16:41.030Z,99049.47
2023-02-14T12:19:10.997Z,99044.88
2023-02-14T12:25:37.047Z,99027.41
2023-02-14T12:28:05.478Z,99018.91
2023-02-14T12:30:32.628Z,99025.09
2023-02-14T12:32:59.113Z,99024.47
2023-02-14T12:35:34.662Z,99021.19
2023-02-14T12:38:17.264Z,99013.56
2023-02-14T12:40:51.794Z,99016.00
2023-02-14T12:43:21.215Z,99004.34
2023-02-14T12:45:48.985Z,99011.22
2023-02-14T12:48:34.314Z,99010.66
2023-02-14T12:51:01.201Z,99002.34
2023-02-14T12:53:48.785Z,99012.84
2023-02-14T12:56:27.682Z,98992.47
2023-02-14T12:59:03.611Z,98993.97
2023-02-14T13:01:38.738Z,98999.13
2023-02-14T13:04:21.075Z,98994.41
2023-02-14T13:06:51.802Z,98981.91
2023-02-14T13:09:18.227Z,98981.81
2023-02-14T13:11:48.741Z,98980.94
2023-02-14T13:14:31.059Z,98973.91
2023-02-14T13:16:59.796Z,98970.03
2023-02-14T13:19:29.846Z,98971.09
2023-02-14T13:21:58.249Z,98970.91
2023-02-14T13:24:27.458Z,98975.94
2023-02-14T13:26:55.518Z,98973.84
2023-02-14T13:29:25.889Z,98973.88
2023-02-14T13:31:54.307Z,98972.38
2023-02-14T13:34:23.845Z,98964.44
2023-02-14T13:36:50.312Z,98962.06
2023-02-14T13:39:36.205Z,98967.47
2023-02-14T13:42:05.149Z,98973.84
2023-02-14T13:44:50.407Z,98959.22
2023-02-14T13:47:23.367Z,98964.03
2023-02-14T13:49:49.785Z,98961.81
2023-02-14T13:52:36.480Z,98941.50
2023-02-14T13:55:03.332Z,98936.91
2023-02-14T13:57:31.706Z,98930.44
2023-02-14T14:00:16.431Z,98944.56
2023-02-14T14:02:49.240Z,98929.31
2023-02-14T14:05:44.818Z,98923.75
2023-02-14T14:08:17.711Z,98934.56
2023-02-14T14:10:47.688Z,98936.94
2023-02-14T14:13:32.809Z,98940.50
2023-02-14T14:16:18.123Z,98937.06
2023-02-14T14:18:44.593Z,98930.88
2023-02-14T14:21:24.354Z,98928.13
2023-02-14T14:24:02.907Z,98940.78
2023-02-14T14:27:01.710Z,98940.31
2023-02-14T14:29:38.429Z,98930.16
2023-02-14T14:32:11.817Z,98930.72
2023-02-14T14:34:38.427Z,98919.00
2023-02-14T14:37:10.045Z,98927.66
2023-02-14T14:39:38.207Z,98924.09
2023-02-14T14:42:06.935Z,98931.19
2023-02-14T14:44:35.701Z,98924.47
2023-02-14T14:47:02.233Z,98920.69
2023-02-14T14:49:28.779Z,98924.53
2023-02-14T14:51:55.578Z,98919.19
2023-02-14T14:54:22.696Z,98909.38
2023-02-14T14:57:01.508Z,98912.47
2023-02-14T14:59:35.096Z,98919.06
2023-02-14T15:02:02.256Z,98913.63
2023-02-14T15:04:32.620Z,98923.16
2023-02-14T15:07:17.338Z,98911.22
2023-02-14T15:09:44.642Z,98907.41
2023-02-14T15:12:30.190Z,98909.06
2023-02-14T15:14:56.671Z,98889.25
2023-02-14T15:17:26.886Z,98892.44
2023-02-14T15:19:54.845Z,98898.97
2023-02-14T15:22:22.306Z,98889.72
2023-02-14T15:24:48.812Z,98887.19
2023-02-14T15:27:19.386Z,98884.84
2023-02-14T15:29:59.206Z,98878.63
2023-02-14T15:32:25.992Z,98881.09
2023-02-14T15:34:52.442Z,98881.47
2023-02-14T15:37:19.160Z,98879.66
2023-02-14T15:39:46.868Z,98878.00
2023-02-14T15:46:26.362Z,98885.84
2023-02-14T15:48:53.043Z,98886.47
2023-02-14T15:51:20.302Z,98899.72
2023-02-14T15:53:58.299Z,98907.47
2023-02-14T15:56:28.057Z,98909.19
2023-02-14T15:59:20.918Z,98918.97
2023-02-14T16:01:51.639Z,98934.09
2023-02-14T16:04:21.832Z,98942.56
2023-02-14T16:06:50.180Z,98952.94
2023-02-14T16:09:26.597Z,98957.03
2023-02-14T16:11:53.717Z,98950.75
2023-02-14T16:14:21.250Z,98956.78
2023-02-14T16:17:04.161Z,98955.53
2023-02-14T16:19:31.397Z,98953.78
2023-02-14T16:21:57.925Z,98951.13
2023-02-14T16:24:24.421Z,98954.50
2023-02-14T16:26:50.924Z,98946.44
2023-02-14T16:29:17.937Z,98949.00
2023-02-14T16:32:15.091Z,98935.91
2023-02-14T16:34:41.225Z,98944.13
2023-02-14T16:37:08.658Z,98951.59
2023-02-14T16:39:35.174Z,98955.38
2023-02-14T16:42:01.634Z,98963.75
2023-02-14T16:44:28.182Z,98959.00
2023-02-14T16:46:54.647Z,98946.75
2023-02-14T16:49:23.028Z,98947.44
2023-02-14T16:51:52.060Z,98948.03
2023-02-14T16:54:19.154Z,98948.41
2023-02-14T16:56:50.193Z,98948.16
2023-02-14T16:59:16.740Z,98943.41
2023-02-14T17:01:43.760Z,98932.47
2023-02-14T17:04:10.442Z,98932.88
2023-02-14T17:06:40.345Z,98939.97
2023-02-14T17:09:07.332Z,98939.34
2023-02-14T17:11:38.442Z,98935.38
2023-02-14T17:14:04.997Z,98933.66
2023-02-14T17:16:31.661Z,98938.34
2023-02-14T17:18:58.141Z,98931.47
2023-02-14T17:21:27.347Z,98938.59
2023-02-14T17:23:53.893Z,98938.88
2023-02-14T17:26:20.429Z,98944.06
2023-02-14T17:28:47.330Z,98933.72
2023-02-14T17:31:13.983Z,98937.88
2023-02-14T17:33:40.714Z,98950.97
2023-02-14T17:36:09.112Z,98958.00
2023-02-14T17:38:36.741Z,98955.03
2023-02-14T17:41:20.407Z,98951.34
2023-02-14T17:43:46.928Z,98951.41
2023-02-14T17:46:14.328Z,98952.03
2023-02-14T17:48:41.110Z,98952.22
2023-02-14T17:51:08.120Z,98957.47
2023-02-14T17:53:34.637Z,98970.00
2023-02-14T17:56:08.659Z,98970.22
2023-02-14T17:58:35.784Z,98969.34
2023-02-14T18:01:05.385Z,98970.31
2023-02-14T18:03:32.126Z,98980.63
2023-02-14T18:05:58.977Z,98972.03
2023-02-14T18:08:32.545Z,98973.34
2023-02-14T18:10:59.223Z,98991.25
2023-02-14T18:13:25.855Z,98994.91
2023-02-14T18:15:54.918Z,98988.31
2023-02-14T18:18:21.455Z,98989.50
2023-02-14T18:20:54.165Z,98997.09
2023-02-14T18:23:20.971Z,99016.31
2023-02-14T18:25:58.294Z,99023.44
2023-02-14T18:28:25.034Z,99025.38
2023-02-14T18:30:54.143Z,99034.47
2023-02-14T18:33:20.655Z,99039.22
2023-02-14T18:35:47.126Z,99055.94
2023-02-14T18:38:13.830Z,99050.44
2023-02-14T18:40:41.229Z,99075.78
2023-02-14T18:43:07.713Z,99088.22
2023-02-14T18:45:37.551Z,99079.44
2023-02-14T18:48:04.459Z,99073.53
2023-02-14T18:50:30.963Z,99079.66
2023-02-14T18:52:57.405Z,99068.81
2023-02-14T18:55:24.877Z,99074.31
2023-02-14T18:57:51.307Z,99070.56
2023-02-14T19:00:18.135Z,99079.03
2023-02-14T19:02:45.169Z,99083.34
2023-02-14T19:05:11.764Z,99088.63
2023-02-14T19:07:38.303Z,99075.31
2023-02-14T19:10:05.039Z,99071.84
2023-02-14T19:12:33.260Z,99082.03
2023-02-14T19:15:00.293Z,99082.63
2023-02-14T19:17:26.819Z,99079.44
2023-02-14T19:19:56.494Z,99102.13
2023-02-14T19:22:23.029Z,99103.50
2023-02-14T19:24:52.983Z,99117.22
2023-02-14T19:27:21.528Z,99123.94
2023-02-14T19:29:48.334Z,99142.91
2023-02-14T19:32:14.932Z,99157.03
2023-02-14T19:34:41.501Z,99156.97
2023-02-14T19:37:07.993Z,99173.41
2023-02-14T19:39:34.523Z,99173.03
2023-02-14T19:42:01.026Z,99184.28
2023-02-14T19:44:29.497Z,99177.69
2023-02-14T19:46:56.751Z,99174.72
2023-02-14T19:49:23.422Z,99169.47
2023-02-14T19:51:51.205Z,99174.78
2023-02-14T19:54:17.848Z,99181.19
2023-02-14T19:56:44.821Z,99170.97
2023-02-14T19:59:16.439Z,99184.19
2023-02-14T20:01:45.819Z,99192.66
2023-02-14T20:04:14.912Z,99201.13
2023-02-14T20:06:41.819Z,99219.97
2023-02-14T20:09:08.814Z,99221.16
2023-02-14T20:11:36.467Z,99240.13
2023-02-14T20:14:03.148Z,99241.50
2023-02-14T20:16:30.173Z,99251.03
2023-02-14T20:18:58.908Z,99273.63
2023-02-14T20:21:28.162Z,99296.16
2023-02-14T20:23:56.680Z,99302.59
2023-02-14T20:26:23.173Z,99292.34
2023-02-14T20:28:50.272Z,99285.22
2023-02-14T20:31:19.411Z,99289.00
2023-02-14T20:33:51.600Z,99291.28
2023-02-14T20:36:18.348Z,99278.63
2023-02-14T20:38:45.119Z,99286.25
2023-02-14T20:41:12.451Z,99286.44
2023-02-14T20:43:39.204Z,99292.72
2023-02-14T20:46:06.548Z,99293.13
2023-02-14T20:48:33.263Z,99301.69
2023-02-14T20:51:08.913Z,99299.00
2023-02-14T20:53:35.930Z,99294.63
2023-02-14T20:56:02.721Z,99294.28
2023-02-14T20:58:32.581Z,99295.28
2023-02-14T21:01:25.612Z,99301.25
2023-02-14T21:03:52.708Z,99291.50
2023-02-14T21:06:19.855Z,99308.66
2023-02-14T21:08:46.716Z,99301.28
2023-02-14T21:11:13.692Z,99308.00
2023-02-14T21:13:40.358Z,99299.63
2023-02-14T21:16:07.925Z,99305.84
2023-02-14T21:18:34.656Z,99308.53
2023-02-14T21:21:30.184Z,99311.13
2023-02-14T21:23:56.732Z,99326.44
2023-02-14T21:26:23.338Z,99330.59
2023-02-14T21:28:49.807Z,99341.06
2023-02-14T21:31:17.948Z,99336.38
2023-02-14T21:33:44.482Z,99328.00
2023-02-14T21:36:11.925Z,99318.47
2023-02-14T21:38:38.672Z,99329.31
2023-02-14T21:41:09.065Z,99336.22
2023-02-14T21:43:36.525Z,99337.88
2023-02-14T21:46:28.600Z,99336.47
2023-02-14T21:49:23.423Z,99339.91
2023-02-14T21:51:53.230Z,99310.00
2023-02-14T21:54:24.095Z,99300.84
2023-02-14T21:56:50.582Z,99300.44
2023-02-14T21:59:17.056Z,99294.94
2023-02-14T22:01:43.669Z,99282.75
2023-02-14T22:04:10.624Z,99274.97
2023-02-14T22:06:37.521Z,99275.88
2023-02-14T22:09:11.103Z,99275.56
2023-02-14T22:11:37.656Z,99271.88
2023-02-14T22:14:04.290Z,99273.28
2023-02-14T22:16:30.942Z,99265.38
2023-02-14T22:19:30.569Z,99255.16
2023-02-14T22:21:57.532Z,99245.38
2023-02-14T22:24:24.084Z,99244.41
2023-02-14T22:26:54.423Z,99245.38
2023-02-14T22:29:20.959Z,99243.56
2023-02-14T22:31:47.521Z,99226.78
2023-02-14T22:34:16.835Z,99224.69
2023-02-14T22:36:49.092Z,99232.41
2023-02-14T22:39:18.324Z,99235.75
2023-02-14T22:41:45.337Z,99233.16
2023-02-14T22:44:12.301Z,99230.28
2023-02-14T22:46:43.172Z,99216.38
2023-02-14T22:49:09.716Z,99229.81
2023-02-14T22:51:39.541Z,99221.56
2023-02-14T22:54:12.291Z,99214.94
2023-02-14T22:56:45.672Z,99218.69
2023-02-14T22:59:14.865Z,99214.47
2023-02-14T23:01:41.386Z,99210.72
2023-02-14T23:04:07.918Z,99216.50
2023-02-14T23:06:34.645Z,99194.31
2023-02-14T23:09:01.340Z,99188.66
2023-02-14T23:11:28.812Z,99186.53
2023-02-14T23:14:49.861Z,99184.28
2023-02-14T23:17:35.503Z,99177.34
2023-02-14T23:20:20.653Z,99171.44
2023-02-14T23:22:47.211Z,99162.09
2023-02-14T23:25:13.663Z,99158.50
2023-02-14T23:27:41.305Z,99162.34
2023-02-14T23:30:27.907Z,99151.09
2023-02-14T23:35:43.068Z,99151.63
2023-02-14T23:38:13.032Z,99128.78
2023-02-14T23:40:58.433Z,99124.63
2023-02-14T23:43:24.883Z,99108.72
2023-02-14T23:45:52.465Z,99104.38
2023-02-14T23:48:21.398Z,99097.03
2023-02-14T23:50:47.899Z,99092.03
2023-02-14T23:53:15.322Z,99086.91
2023-02-14T23:58:45.880Z,99066.06
